sensor_id;sensor_type;location;lat;lon;timestamp;P1;durP1;ratioP1;P2;durP2;ratioP2
34741;SDS011;20968;42.696;23.360;2022-09-03T00:02:01;7.23;;;3.90;;
34741;SDS011;20968;42.696;23.360;2022-09-03T00:13:54;6.47;;;4.38;;
34741;SDS011;20968;42.696;23.360;2022-09-03T00:16:28;6.03;;;3.90;;
34741;SDS011;20968;42.696;23.360;2022-09-03T00:19:00;6.53;;;4.47;;
34741;SDS011;20968;42.696;23.360;2022-09-03T00:24:14;8.27;;;4.40;;
34741;SDS011;20968;42.696;23.360;2022-09-03T00:26:46;5.47;;;4.00;;
34741;SDS011;20968;42.696;23.360;2022-09-03T00:29:24;5.28;;;3.72;;
34741;SDS011;20968;42.696;23.360;2022-09-03T00:32:00;5.20;;;4.22;;
34741;SDS011;20968;42.696;23.360;2022-09-03T00:34:38;6.05;;;3.85;;
34741;SDS011;20968;42.696;23.360;2022-09-03T00:37:08;5.28;;;3.47;;
34741;SDS011;20968;42.696;23.360;2022-09-03T00:39:37;4.95;;;3.70;;
34741;SDS011;20968;42.696;23.360;2022-09-03T00:45:01;5.90;;;3.85;;
34741;SDS011;20968;42.696;23.360;2022-09-03T00:47:54;6.43;;;4.15;;
34741;SDS011;20968;42.696;23.360;2022-09-03T00:53:25;6.28;;;3.58;;
34741;SDS011;20968;42.696;23.360;2022-09-03T01:04:44;9.27;;;3.92;;
34741;SDS011;20968;42.696;23.360;2022-09-03T01:07:48;4.55;;;3.60;;
34741;SDS011;20968;42.696;23.360;2022-09-03T01:10:53;6.32;;;3.67;;
34741;SDS011;20968;42.696;23.360;2022-09-03T01:13:35;4.65;;;3.60;;
34741;SDS011;20968;42.696;23.360;2022-09-03T01:30:25;7.53;;;5.68;;
34741;SDS011;20968;42.696;23.360;2022-09-03T01:38:48;5.85;;;3.88;;
34741;SDS011;20968;42.696;23.360;2022-09-03T02:01:25;6.65;;;4.57;;
34741;SDS011;20968;42.696;23.360;2022-09-03T02:03:59;7.32;;;4.85;;
34741;SDS011;20968;42.696;23.360;2022-09-03T02:09:17;7.65;;;5.03;;
34741;SDS011;20968;42.696;23.360;2022-09-03T02:11:48;6.68;;;4.30;;
34741;SDS011;20968;42.696;23.360;2022-09-03T02:14:52;10.57;;;4.82;;
34741;SDS011;20968;42.696;23.360;2022-09-03T02:17:19;9.10;;;4.30;;
34741;SDS011;20968;42.696;23.360;2022-09-03T02:19:46;6.05;;;4.20;;
34741;SDS011;20968;42.696;23.360;2022-09-03T02:22:12;6.85;;;4.45;;
34741;SDS011;20968;42.696;23.360;2022-09-03T02:24:38;8.38;;;5.03;;
34741;SDS011;20968;42.696;23.360;2022-09-03T02:27:04;5.63;;;4.35;;
34741;SDS011;20968;42.696;23.360;2022-09-03T02:29:29;6.68;;;4.65;;
34741;SDS011;20968;42.696;23.360;2022-09-03T02:31:56;14.00;;;5.38;;
34741;SDS011;20968;42.696;23.360;2022-09-03T02:34:30;6.55;;;4.90;;
34741;SDS011;20968;42.696;23.360;2022-09-03T02:36:56;6.63;;;4.70;;
34741;SDS011;20968;42.696;23.360;2022-09-03T02:39:23;7.15;;;4.45;;
34741;SDS011;20968;42.696;23.360;2022-09-03T02:41:55;7.28;;;4.38;;
34741;SDS011;20968;42.696;23.360;2022-09-03T02:44:23;11.02;;;5.13;;
34741;SDS011;20968;42.696;23.360;2022-09-03T02:46:56;11.25;;;4.97;;
34741;SDS011;20968;42.696;23.360;2022-09-03T02:49:27;11.27;;;4.82;;
34741;SDS011;20968;42.696;23.360;2022-09-03T02:51:57;9.32;;;5.32;;
34741;SDS011;20968;42.696;23.360;2022-09-03T02:54:29;7.47;;;4.82;;
34741;SDS011;20968;42.696;23.360;2022-09-03T02:56:57;7.43;;;4.85;;
34741;SDS011;20968;42.696;23.360;2022-09-03T02:59:26;7.03;;;4.93;;
34741;SDS011;20968;42.696;23.360;2022-09-03T03:01:52;8.27;;;5.68;;
34741;SDS011;20968;42.696;23.360;2022-09-03T03:04:20;8.15;;;5.10;;
34741;SDS011;20968;42.696;23.360;2022-09-03T03:06:47;9.65;;;5.45;;
34741;SDS011;20968;42.696;23.360;2022-09-03T03:09:14;9.30;;;5.90;;
34741;SDS011;20968;42.696;23.360;2022-09-03T03:11:44;7.05;;;4.93;;
34741;SDS011;20968;42.696;23.360;2022-09-03T03:14:28;7.80;;;5.22;;
34741;SDS011;20968;42.696;23.360;2022-09-03T03:16:55;9.68;;;6.05;;
34741;SDS011;20968;42.696;23.360;2022-09-03T03:19:32;8.48;;;5.72;;
34741;SDS011;20968;42.696;23.360;2022-09-03T03:22:08;9.32;;;5.30;;
34741;SDS011;20968;42.696;23.360;2022-09-03T03:24:35;10.82;;;6.22;;
34741;SDS011;20968;42.696;23.360;2022-09-03T03:27:01;9.35;;;5.65;;
34741;SDS011;20968;42.696;23.360;2022-09-03T03:29:31;7.80;;;5.22;;
34741;SDS011;20968;42.696;23.360;2022-09-03T03:31:57;10.20;;;5.95;;
34741;SDS011;20968;42.696;23.360;2022-09-03T03:34:22;8.35;;;5.28;;
34741;SDS011;20968;42.696;23.360;2022-09-03T03:36:50;7.85;;;4.88;;
34741;SDS011;20968;42.696;23.360;2022-09-03T03:39:17;12.52;;;6.30;;
34741;SDS011;20968;42.696;23.360;2022-09-03T03:41:50;9.27;;;5.80;;
34741;SDS011;20968;42.696;23.360;2022-09-03T03:44:17;10.07;;;4.82;;
34741;SDS011;20968;42.696;23.360;2022-09-03T03:46:44;9.80;;;6.82;;
34741;SDS011;20968;42.696;23.360;2022-09-03T03:49:17;8.20;;;5.60;;
34741;SDS011;20968;42.696;23.360;2022-09-03T03:51:50;12.00;;;5.40;;
34741;SDS011;20968;42.696;23.360;2022-09-03T03:54:22;6.60;;;5.05;;
34741;SDS011;20968;42.696;23.360;2022-09-03T03:56:51;8.93;;;5.30;;
34741;SDS011;20968;42.696;23.360;2022-09-03T03:59:23;9.27;;;6.22;;
34741;SDS011;20968;42.696;23.360;2022-09-03T04:02:09;10.45;;;6.43;;
34741;SDS011;20968;42.696;23.360;2022-09-03T04:04:43;9.15;;;5.93;;
34741;SDS011;20968;42.696;23.360;2022-09-03T04:07:09;8.40;;;5.57;;
34741;SDS011;20968;42.696;23.360;2022-09-03T04:09:43;7.95;;;5.07;;
34741;SDS011;20968;42.696;23.360;2022-09-03T04:12:16;10.18;;;5.60;;
34741;SDS011;20968;42.696;23.360;2022-09-03T04:14:43;6.85;;;5.53;;
34741;SDS011;20968;42.696;23.360;2022-09-03T04:17:10;9.10;;;5.57;;
34741;SDS011;20968;42.696;23.360;2022-09-03T04:19:45;9.30;;;5.40;;
34741;SDS011;20968;42.696;23.360;2022-09-03T04:22:22;10.02;;;5.47;;
34741;SDS011;20968;42.696;23.360;2022-09-03T04:24:47;14.00;;;5.95;;
34741;SDS011;20968;42.696;23.360;2022-09-03T04:27:14;8.65;;;5.50;;
34741;SDS011;20968;42.696;23.360;2022-09-03T04:29:59;9.48;;;5.70;;
34741;SDS011;20968;42.696;23.360;2022-09-03T04:32:36;9.82;;;5.68;;
34741;SDS011;20968;42.696;23.360;2022-09-03T04:35:17;10.20;;;6.60;;
34741;SDS011;20968;42.696;23.360;2022-09-03T04:37:45;8.70;;;5.75;;
34741;SDS011;20968;42.696;23.360;2022-09-03T04:40:26;7.97;;;5.15;;
34741;SDS011;20968;42.696;23.360;2022-09-03T04:43:18;7.68;;;5.35;;
34741;SDS011;20968;42.696;23.360;2022-09-03T04:45:49;9.43;;;5.45;;
34741;SDS011;20968;42.696;23.360;2022-09-03T04:48:16;8.95;;;5.97;;
34741;SDS011;20968;42.696;23.360;2022-09-03T04:50:46;8.07;;;5.55;;
34741;SDS011;20968;42.696;23.360;2022-09-03T04:53:15;10.30;;;6.18;;
34741;SDS011;20968;42.696;23.360;2022-09-03T04:55:51;10.02;;;5.85;;
34741;SDS011;20968;42.696;23.360;2022-09-03T04:58:18;11.63;;;5.95;;
34741;SDS011;20968;42.696;23.360;2022-09-03T05:00:43;8.05;;;4.63;;
34741;SDS011;20968;42.696;23.360;2022-09-03T05:03:16;8.65;;;5.10;;
34741;SDS011;20968;42.696;23.360;2022-09-03T05:12:25;8.27;;;5.30;;
34741;SDS011;20968;42.696;23.360;2022-09-03T05:15:00;8.90;;;5.68;;
34741;SDS011;20968;42.696;23.360;2022-09-03T05:17:41;8.32;;;5.47;;
34741;SDS011;20968;42.696;23.360;2022-09-03T05:20:30;10.10;;;4.95;;
34741;SDS011;20968;42.696;23.360;2022-09-03T05:23:37;9.20;;;5.53;;
34741;SDS011;20968;42.696;23.360;2022-09-03T05:26:11;6.38;;;4.90;;
34741;SDS011;20968;42.696;23.360;2022-09-03T05:28:40;10.65;;;6.10;;
34741;SDS011;20968;42.696;23.360;2022-09-03T05:31:17;6.85;;;4.82;;
34741;SDS011;20968;42.696;23.360;2022-09-03T05:42:45;8.38;;;5.30;;
34741;SDS011;20968;42.696;23.360;2022-09-03T05:45:11;9.88;;;4.60;;
34741;SDS011;20968;42.696;23.360;2022-09-03T05:47:37;9.50;;;5.30;;
34741;SDS011;20968;42.696;23.360;2022-09-03T05:50:09;8.52;;;5.55;;
34741;SDS011;20968;42.696;23.360;2022-09-03T05:52:35;9.55;;;5.35;;
34741;SDS011;20968;42.696;23.360;2022-09-03T05:55:10;10.02;;;5.60;;
34741;SDS011;20968;42.696;23.360;2022-09-03T05:57:38;8.70;;;5.63;;
34741;SDS011;20968;42.696;23.360;2022-09-03T06:00:05;9.15;;;5.00;;
34741;SDS011;20968;42.696;23.360;2022-09-03T06:02:31;7.90;;;4.88;;
34741;SDS011;20968;42.696;23.360;2022-09-03T06:04:58;10.93;;;5.10;;
34741;SDS011;20968;42.696;23.360;2022-09-03T06:07:28;9.05;;;5.25;;
34741;SDS011;20968;42.696;23.360;2022-09-03T06:09:53;8.85;;;5.28;;
34741;SDS011;20968;42.696;23.360;2022-09-03T06:12:19;9.05;;;5.55;;
34741;SDS011;20968;42.696;23.360;2022-09-03T06:14:48;14.02;;;6.00;;
34741;SDS011;20968;42.696;23.360;2022-09-03T06:17:14;9.38;;;4.18;;
34741;SDS011;20968;42.696;23.360;2022-09-03T06:19:41;10.68;;;5.63;;
34741;SDS011;20968;42.696;23.360;2022-09-03T06:22:07;8.43;;;5.25;;
34741;SDS011;20968;42.696;23.360;2022-09-03T06:24:32;6.97;;;4.05;;
34741;SDS011;20968;42.696;23.360;2022-09-03T06:26:58;8.52;;;4.97;;
34741;SDS011;20968;42.696;23.360;2022-09-03T06:29:23;7.35;;;4.93;;
34741;SDS011;20968;42.696;23.360;2022-09-03T06:31:51;8.23;;;4.60;;
34741;SDS011;20968;42.696;23.360;2022-09-03T06:34:16;9.57;;;5.32;;
34741;SDS011;20968;42.696;23.360;2022-09-03T06:36:46;9.40;;;5.05;;
34741;SDS011;20968;42.696;23.360;2022-09-03T06:39:13;6.40;;;4.75;;
34741;SDS011;20968;42.696;23.360;2022-09-03T06:41:40;8.52;;;5.65;;
34741;SDS011;20968;42.696;23.360;2022-09-03T06:44:07;10.40;;;5.05;;
34741;SDS011;20968;42.696;23.360;2022-09-03T06:46:37;7.70;;;5.03;;
34741;SDS011;20968;42.696;23.360;2022-09-03T06:49:06;6.30;;;4.60;;
34741;SDS011;20968;42.696;23.360;2022-09-03T06:51:34;6.38;;;4.90;;
34741;SDS011;20968;42.696;23.360;2022-09-03T06:54:07;6.50;;;4.80;;
34741;SDS011;20968;42.696;23.360;2022-09-03T06:56:35;8.45;;;5.07;;
34741;SDS011;20968;42.696;23.360;2022-09-03T06:59:06;12.25;;;5.10;;
34741;SDS011;20968;42.696;23.360;2022-09-03T07:01:40;12.82;;;5.88;;
34741;SDS011;20968;42.696;23.360;2022-09-03T07:04:11;9.50;;;4.68;;
34741;SDS011;20968;42.696;23.360;2022-09-03T07:06:40;9.05;;;5.20;;
34741;SDS011;20968;42.696;23.360;2022-09-03T07:09:07;4.63;;;3.78;;
34741;SDS011;20968;42.696;23.360;2022-09-03T07:11:36;6.10;;;3.97;;
34741;SDS011;20968;42.696;23.360;2022-09-03T07:16:52;7.68;;;6.07;;
34741;SDS011;20968;42.696;23.360;2022-09-03T07:19:17;6.43;;;4.07;;
34741;SDS011;20968;42.696;23.360;2022-09-03T07:21:43;6.25;;;4.28;;
34741;SDS011;20968;42.696;23.360;2022-09-03T07:24:15;4.90;;;3.95;;
34741;SDS011;20968;42.696;23.360;2022-09-03T07:26:42;7.45;;;5.00;;
34741;SDS011;20968;42.696;23.360;2022-09-03T07:29:11;8.10;;;5.43;;
34741;SDS011;20968;42.696;23.360;2022-09-03T07:31:44;8.20;;;4.72;;
34741;SDS011;20968;42.696;23.360;2022-09-03T07:34:15;5.90;;;4.28;;
34741;SDS011;20968;42.696;23.360;2022-09-03T07:36:46;5.25;;;4.57;;
34741;SDS011;20968;42.696;23.360;2022-09-03T07:41:42;6.07;;;4.53;;
34741;SDS011;20968;42.696;23.360;2022-09-03T07:44:16;5.97;;;4.32;;
34741;SDS011;20968;42.696;23.360;2022-09-03T07:46:51;7.03;;;5.28;;
34741;SDS011;20968;42.696;23.360;2022-09-03T07:49:19;7.15;;;4.82;;
34741;SDS011;20968;42.696;23.360;2022-09-03T07:51:50;6.28;;;4.68;;
34741;SDS011;20968;42.696;23.360;2022-09-03T07:54:19;7.00;;;4.65;;
34741;SDS011;20968;42.696;23.360;2022-09-03T07:56:50;7.32;;;4.85;;
34741;SDS011;20968;42.696;23.360;2022-09-03T07:59:17;6.15;;;4.78;;
34741;SDS011;20968;42.696;23.360;2022-09-03T08:01:46;6.90;;;4.38;;
34741;SDS011;20968;42.696;23.360;2022-09-03T08:04:11;6.85;;;4.40;;
34741;SDS011;20968;42.696;23.360;2022-09-03T08:06:37;6.72;;;4.45;;
34741;SDS011;20968;42.696;23.360;2022-09-03T08:09:04;5.95;;;4.10;;
34741;SDS011;20968;42.696;23.360;2022-09-03T08:11:33;6.00;;;4.47;;
34741;SDS011;20968;42.696;23.360;2022-09-03T08:14:04;5.38;;;4.38;;
34741;SDS011;20968;42.696;23.360;2022-09-03T08:16:50;4.68;;;3.83;;
34741;SDS011;20968;42.696;23.360;2022-09-03T08:19:16;9.40;;;5.70;;
34741;SDS011;20968;42.696;23.360;2022-09-03T08:21:56;5.30;;;3.58;;
34741;SDS011;20968;42.696;23.360;2022-09-03T08:24:21;5.28;;;3.80;;
34741;SDS011;20968;42.696;23.360;2022-09-03T08:26:49;5.07;;;4.03;;
34741;SDS011;20968;42.696;23.360;2022-09-03T08:29:16;5.03;;;4.25;;
34741;SDS011;20968;42.696;23.360;2022-09-03T08:31:42;5.50;;;3.70;;
34741;SDS011;20968;42.696;23.360;2022-09-03T08:34:15;8.43;;;4.10;;
34741;SDS011;20968;42.696;23.360;2022-09-03T08:36:42;5.53;;;4.13;;
34741;SDS011;20968;42.696;23.360;2022-09-03T08:39:11;5.07;;;4.15;;
34741;SDS011;20968;42.696;23.360;2022-09-03T08:44:19;6.88;;;4.55;;
34741;SDS011;20968;42.696;23.360;2022-09-03T08:47:09;5.78;;;4.35;;
34741;SDS011;20968;42.696;23.360;2022-09-03T09:09:29;2.95;;;2.40;;
34741;SDS011;20968;42.696;23.360;2022-09-03T09:20:53;5.13;;;3.90;;
34741;SDS011;20968;42.696;23.360;2022-09-03T09:23:34;2.92;;;2.63;;
34741;SDS011;20968;42.696;23.360;2022-09-03T09:26:23;3.83;;;3.40;;
34741;SDS011;20968;42.696;23.360;2022-09-03T09:29:11;3.72;;;3.00;;
34741;SDS011;20968;42.696;23.360;2022-09-03T09:31:48;5.90;;;3.92;;
34741;SDS011;20968;42.696;23.360;2022-09-03T09:34:15;5.10;;;4.53;;
34741;SDS011;20968;42.696;23.360;2022-09-03T09:39:30;7.57;;;3.60;;
34741;SDS011;20968;42.696;23.360;2022-09-03T09:42:00;4.43;;;3.28;;
34741;SDS011;20968;42.696;23.360;2022-09-03T09:44:47;4.45;;;3.40;;
34741;SDS011;20968;42.696;23.360;2022-09-03T09:51:05;4.88;;;3.33;;
34741;SDS011;20968;42.696;23.360;2022-09-03T09:53:39;5.38;;;3.72;;
34741;SDS011;20968;42.696;23.360;2022-09-03T09:56:09;4.03;;;3.50;;
34741;SDS011;20968;42.696;23.360;2022-09-03T09:58:45;4.03;;;3.22;;
34741;SDS011;20968;42.696;23.360;2022-09-03T10:01:22;7.45;;;3.22;;
34741;SDS011;20968;42.696;23.360;2022-09-03T10:03:59;3.50;;;2.90;;
34741;SDS011;20968;42.696;23.360;2022-09-03T10:06:39;3.45;;;2.75;;
34741;SDS011;20968;42.696;23.360;2022-09-03T10:09:24;4.18;;;3.53;;
34741;SDS011;20968;42.696;23.360;2022-09-03T10:15:10;3.78;;;3.20;;
34741;SDS011;20968;42.696;23.360;2022-09-03T10:23:24;4.45;;;3.05;;
34741;SDS011;20968;42.696;23.360;2022-09-03T10:26:03;2.85;;;2.30;;
34741;SDS011;20968;42.696;23.360;2022-09-03T10:28:37;2.80;;;2.35;;
34741;SDS011;20968;42.696;23.360;2022-09-03T10:33:38;6.55;;;3.45;;
34741;SDS011;20968;42.696;23.360;2022-09-03T10:38:56;2.65;;;2.45;;
34741;SDS011;20968;42.696;23.360;2022-09-03T10:53:01;2.60;;;2.40;;
34741;SDS011;20968;42.696;23.360;2022-09-03T11:08:05;2.70;;;2.50;;
34741;SDS011;20968;42.696;23.360;2022-09-03T11:10:40;3.63;;;2.60;;
34741;SDS011;20968;42.696;23.360;2022-09-03T11:15:41;2.90;;;2.55;;
34741;SDS011;20968;42.696;23.360;2022-09-03T11:21:04;2.70;;;2.47;;
34741;SDS011;20968;42.696;23.360;2022-09-03T11:23:36;2.88;;;2.60;;
34741;SDS011;20968;42.696;23.360;2022-09-03T11:26:07;3.85;;;2.50;;
34741;SDS011;20968;42.696;23.360;2022-09-03T11:28:45;2.55;;;2.20;;
34741;SDS011;20968;42.696;23.360;2022-09-03T11:34:14;2.70;;;2.42;;
34741;SDS011;20968;42.696;23.360;2022-09-03T11:37:43;2.90;;;2.60;;
34741;SDS011;20968;42.696;23.360;2022-09-03T11:42:29;10.23;;;3.72;;
34741;SDS011;20968;42.696;23.360;2022-09-03T11:47:58;3.08;;;2.55;;
34741;SDS011;20968;42.696;23.360;2022-09-03T11:50:27;5.38;;;2.83;;
34741;SDS011;20968;42.696;23.360;2022-09-03T11:58:39;2.85;;;2.65;;
34741;SDS011;20968;42.696;23.360;2022-09-03T12:01:11;5.78;;;3.03;;
34741;SDS011;20968;42.696;23.360;2022-09-03T12:03:50;4.40;;;2.90;;
34741;SDS011;20968;42.696;23.360;2022-09-03T12:19:39;2.80;;;2.50;;
34741;SDS011;20968;42.696;23.360;2022-09-03T12:22:13;2.92;;;2.63;;
34741;SDS011;20968;42.696;23.360;2022-09-03T12:24:40;3.13;;;2.83;;
34741;SDS011;20968;42.696;23.360;2022-09-03T12:27:07;3.00;;;2.70;;
34741;SDS011;20968;42.696;23.360;2022-09-03T12:29:37;3.13;;;2.78;;
34741;SDS011;20968;42.696;23.360;2022-09-03T12:32:14;3.95;;;3.05;;
34741;SDS011;20968;42.696;23.360;2022-09-03T12:34:40;2.40;;;2.20;;
34741;SDS011;20968;42.696;23.360;2022-09-03T12:37:15;2.92;;;2.50;;
34741;SDS011;20968;42.696;23.360;2022-09-03T12:39:54;4.05;;;2.85;;
34741;SDS011;20968;42.696;23.360;2022-09-03T12:42:36;4.20;;;2.80;;
34741;SDS011;20968;42.696;23.360;2022-09-03T12:45:05;3.72;;;2.72;;
34741;SDS011;20968;42.696;23.360;2022-09-03T12:47:38;2.80;;;2.30;;
34741;SDS011;20968;42.696;23.360;2022-09-03T12:50:05;3.67;;;3.13;;
34741;SDS011;20968;42.696;23.360;2022-09-03T13:02:05;2.53;;;2.25;;
34741;SDS011;20968;42.696;23.360;2022-09-03T13:04:47;4.05;;;2.20;;
34741;SDS011;20968;42.696;23.360;2022-09-03T13:09:54;2.28;;;2.15;;
34741;SDS011;20968;42.696;23.360;2022-09-03T13:12:29;2.40;;;2.20;;
34741;SDS011;20968;42.696;23.360;2022-09-03T13:15:03;4.18;;;1.75;;
34741;SDS011;20968;42.696;23.360;2022-09-03T13:20:27;2.42;;;1.88;;
34741;SDS011;20968;42.696;23.360;2022-09-03T13:26:02;1.33;;;1.23;;
34741;SDS011;20968;42.696;23.360;2022-09-03T13:28:39;3.38;;;1.60;;
34741;SDS011;20968;42.696;23.360;2022-09-03T13:37:10;1.50;;;1.40;;
34741;SDS011;20968;42.696;23.360;2022-09-03T13:39:49;1.77;;;1.40;;
34741;SDS011;20968;42.696;23.360;2022-09-03T13:42:21;1.98;;;1.80;;
34741;SDS011;20968;42.696;23.360;2022-09-03T13:48:10;2.35;;;1.90;;
34741;SDS011;20968;42.696;23.360;2022-09-03T13:56:17;1.70;;;1.60;;
34741;SDS011;20968;42.696;23.360;2022-09-03T13:58:48;2.53;;;2.00;;
34741;SDS011;20968;42.696;23.360;2022-09-03T14:01:34;1.60;;;1.48;;
34741;SDS011;20968;42.696;23.360;2022-09-03T14:04:13;1.98;;;1.77;;
34741;SDS011;20968;42.696;23.360;2022-09-03T14:09:55;1.98;;;1.58;;
34741;SDS011;20968;42.696;23.360;2022-09-03T14:12:43;2.63;;;2.10;;
34741;SDS011;20968;42.696;23.360;2022-09-03T14:15:25;1.55;;;1.45;;
34741;SDS011;20968;42.696;23.360;2022-09-03T14:18:09;2.88;;;2.30;;
34741;SDS011;20968;42.696;23.360;2022-09-03T14:20:40;2.08;;;1.80;;
34741;SDS011;20968;42.696;23.360;2022-09-03T14:25:52;1.92;;;1.70;;
34741;SDS011;20968;42.696;23.360;2022-09-03T14:28:26;1.92;;;1.50;;
34741;SDS011;20968;42.696;23.360;2022-09-03T14:33:54;2.55;;;2.35;;
34741;SDS011;20968;42.696;23.360;2022-09-03T14:58:48;4.88;;;1.67;;
34741;SDS011;20968;42.696;23.360;2022-09-03T15:01:40;2.80;;;2.40;;
34741;SDS011;20968;42.696;23.360;2022-09-03T15:07:29;2.40;;;1.98;;
34741;SDS011;20968;42.696;23.360;2022-09-03T15:10:00;2.80;;;2.15;;
34741;SDS011;20968;42.696;23.360;2022-09-03T15:15:31;4.15;;;2.80;;
34741;SDS011;20968;42.696;23.360;2022-09-03T15:30:07;2.28;;;1.73;;
34741;SDS011;20968;42.696;23.360;2022-09-03T15:41:09;5.18;;;2.85;;
34741;SDS011;20968;42.696;23.360;2022-09-03T15:43:47;3.08;;;2.53;;
34741;SDS011;20968;42.696;23.360;2022-09-03T15:52:08;3.00;;;2.80;;
34741;SDS011;20968;42.696;23.360;2022-09-03T15:54:42;4.85;;;3.40;;
34741;SDS011;20968;42.696;23.360;2022-09-03T15:59:57;3.05;;;2.75;;
34741;SDS011;20968;42.696;23.360;2022-09-03T16:02:43;4.10;;;3.13;;
34741;SDS011;20968;42.696;23.360;2022-09-03T16:08:03;3.85;;;3.38;;
34741;SDS011;20968;42.696;23.360;2022-09-03T16:10:34;4.57;;;3.72;;
34741;SDS011;20968;42.696;23.360;2022-09-03T16:15:56;3.78;;;3.28;;
34741;SDS011;20968;42.696;23.360;2022-09-03T16:37:55;6.15;;;3.70;;
34741;SDS011;20968;42.696;23.360;2022-09-03T16:40:32;3.33;;;3.00;;
34741;SDS011;20968;42.696;23.360;2022-09-03T17:00:48;4.18;;;3.40;;
34741;SDS011;20968;42.696;23.360;2022-09-03T17:13:11;4.50;;;3.53;;
34741;SDS011;20968;42.696;23.360;2022-09-03T17:19:12;6.13;;;4.28;;
34741;SDS011;20968;42.696;23.360;2022-09-03T17:24:40;5.28;;;3.83;;
34741;SDS011;20968;42.696;23.360;2022-09-03T17:30:10;6.32;;;4.03;;
34741;SDS011;20968;42.696;23.360;2022-09-03T17:33:25;5.07;;;3.88;;
34741;SDS011;20968;42.696;23.360;2022-09-03T17:48:54;4.05;;;3.53;;
34741;SDS011;20968;42.696;23.360;2022-09-03T17:57:21;4.28;;;3.88;;
34741;SDS011;20968;42.696;23.360;2022-09-03T18:00:03;4.00;;;3.60;;
34741;SDS011;20968;42.696;23.360;2022-09-03T18:02:38;4.78;;;4.22;;
34741;SDS011;20968;42.696;23.360;2022-09-03T18:05:16;3.80;;;3.33;;
34741;SDS011;20968;42.696;23.360;2022-09-03T18:14:20;6.40;;;3.80;;
34741;SDS011;20968;42.696;23.360;2022-09-03T18:20:17;4.18;;;3.75;;
34741;SDS011;20968;42.696;23.360;2022-09-03T18:29:53;6.95;;;4.25;;
34741;SDS011;20968;42.696;23.360;2022-09-03T18:36:22;5.63;;;4.07;;
34741;SDS011;20968;42.696;23.360;2022-09-03T19:09:18;5.35;;;4.43;;
34741;SDS011;20968;42.696;23.360;2022-09-03T19:12:27;4.20;;;3.75;;
34741;SDS011;20968;42.696;23.360;2022-09-03T19:24:50;4.60;;;4.05;;
34741;SDS011;20968;42.696;23.360;2022-09-03T19:28:20;4.40;;;3.85;;
34741;SDS011;20968;42.696;23.360;2022-09-03T19:37:14;6.18;;;4.57;;
34741;SDS011;20968;42.696;23.360;2022-09-03T19:53:02;6.65;;;4.38;;
34741;SDS011;20968;42.696;23.360;2022-09-03T19:59:16;9.00;;;5.93;;
34741;SDS011;20968;42.696;23.360;2022-09-03T20:02:03;12.98;;;6.03;;
34741;SDS011;20968;42.696;23.360;2022-09-03T20:05:12;6.75;;;5.63;;
34741;SDS011;20968;42.696;23.360;2022-09-03T20:08:02;8.63;;;5.95;;
34741;SDS011;20968;42.696;23.360;2022-09-03T20:10:48;7.32;;;5.63;;
34741;SDS011;20968;42.696;23.360;2022-09-03T20:13:17;7.00;;;5.45;;
34741;SDS011;20968;42.696;23.360;2022-09-03T20:15:58;6.28;;;5.07;;
34741;SDS011;20968;42.696;23.360;2022-09-03T20:19:02;6.97;;;5.43;;
34741;SDS011;20968;42.696;23.360;2022-09-03T20:21:49;7.63;;;4.28;;
34741;SDS011;20968;42.696;23.360;2022-09-03T20:27:26;7.55;;;4.93;;
34741;SDS011;20968;42.696;23.360;2022-09-03T20:30:22;6.32;;;4.80;;
34741;SDS011;20968;42.696;23.360;2022-09-03T20:41:53;7.95;;;5.88;;
34741;SDS011;20968;42.696;23.360;2022-09-03T20:56:20;10.05;;;5.35;;
34741;SDS011;20968;42.696;23.360;2022-09-03T21:10:55;7.67;;;5.30;;
34741;SDS011;20968;42.696;23.360;2022-09-03T21:15:57;7.30;;;5.03;;
34741;SDS011;20968;42.696;23.360;2022-09-03T21:26:58;4.68;;;4.13;;
34741;SDS011;20968;42.696;23.360;2022-09-03T21:29:38;6.38;;;4.75;;
34741;SDS011;20968;42.696;23.360;2022-09-03T21:32:17;5.88;;;4.57;;
34741;SDS011;20968;42.696;23.360;2022-09-03T21:37:28;5.65;;;4.50;;
34741;SDS011;20968;42.696;23.360;2022-09-03T21:39:59;8.25;;;5.25;;
34741;SDS011;20968;42.696;23.360;2022-09-03T21:45:43;7.07;;;5.95;;
34741;SDS011;20968;42.696;23.360;2022-09-03T21:54:35;7.45;;;5.15;;
34741;SDS011;20968;42.696;23.360;2022-09-03T21:57:16;5.22;;;4.53;;
34741;SDS011;20968;42.696;23.360;2022-09-03T21:59:51;6.25;;;4.68;;
34741;SDS011;20968;42.696;23.360;2022-09-03T22:02:37;6.28;;;5.00;;
34741;SDS011;20968;42.696;23.360;2022-09-03T22:05:04;7.32;;;4.75;;
34741;SDS011;20968;42.696;23.360;2022-09-03T22:10:31;8.85;;;5.10;;
34741;SDS011;20968;42.696;23.360;2022-09-03T22:13:34;7.30;;;4.50;;
34741;SDS011;20968;42.696;23.360;2022-09-03T22:16:28;6.22;;;4.32;;
34741;SDS011;20968;42.696;23.360;2022-09-03T22:19:22;6.32;;;5.50;;
34741;SDS011;20968;42.696;23.360;2022-09-03T22:22:12;8.27;;;5.57;;
34741;SDS011;20968;42.696;23.360;2022-09-03T22:25:08;5.88;;;5.03;;
34741;SDS011;20968;42.696;23.360;2022-09-03T22:34:36;8.52;;;6.32;;
34741;SDS011;20968;42.696;23.360;2022-09-03T22:37:31;6.97;;;5.67;;
34741;SDS011;20968;42.696;23.360;2022-09-03T22:43:47;6.35;;;5.70;;
34741;SDS011;20968;42.696;23.360;2022-09-03T22:46:24;8.63;;;6.25;;
34741;SDS011;20968;42.696;23.360;2022-09-03T22:51:55;6.10;;;5.22;;
34741;SDS011;20968;42.696;23.360;2022-09-03T22:54:56;7.63;;;5.85;;
34741;SDS011;20968;42.696;23.360;2022-09-03T22:57:36;5.72;;;4.72;;
34741;SDS011;20968;42.696;23.360;2022-09-03T23:00:09;8.07;;;5.18;;
34741;SDS011;20968;42.696;23.360;2022-09-03T23:02:41;5.45;;;4.57;;
34741;SDS011;20968;42.696;23.360;2022-09-03T23:08:38;7.07;;;5.38;;
34741;SDS011;20968;42.696;23.360;2022-09-03T23:13:47;7.13;;;4.88;;
34741;SDS011;20968;42.696;23.360;2022-09-03T23:22:19;7.40;;;4.13;;
34741;SDS011;20968;42.696;23.360;2022-09-03T23:25:14;6.60;;;4.88;;
34741;SDS011;20968;42.696;23.360;2022-09-03T23:28:02;7.18;;;5.45;;
34741;SDS011;20968;42.696;23.360;2022-09-03T23:30:34;6.70;;;5.22;;
34741;SDS011;20968;42.696;23.360;2022-09-03T23:33:01;7.10;;;5.25;;
34741;SDS011;20968;42.696;23.360;2022-09-03T23:35:29;9.75;;;5.75;;
34741;SDS011;20968;42.696;23.360;2022-09-03T23:38:13;8.02;;;5.53;;
34741;SDS011;20968;42.696;23.360;2022-09-03T23:41:00;7.20;;;5.47;;
34741;SDS011;20968;42.696;23.360;2022-09-03T23:48:56;9.40;;;5.82;;
34741;SDS011;20968;42.696;23.360;2022-09-03T23:54:45;7.57;;;5.78;;
34741;SDS011;20968;42.696;23.360;2022-09-03T23:57:22;8.30;;;5.38;;
